sensor_id;sensor_type;location;lat;lon;timestamp;P1;durP1;ratioP1;P2;durP2;ratioP2
50689;SDS011;54375;48.298;11.238;2023-02-10T00:06:58;73.95;;;27.13;;
50689;SDS011;54375;48.298;11.238;2023-02-10T00:27:01;68.40;;;31.45;;
50689;SDS011;54375;48.298;11.238;2023-02-10T00:47:03;70.53;;;29.92;;
50689;SDS011;54375;48.298;11.238;2023-02-10T01:07:06;78.90;;;33.97;;
50689;SDS011;54375;48.298;11.238;2023-02-10T01:27:08;79.38;;;32.75;;
50689;SDS011;54375;48.298;11.238;2023-02-10T01:47:10;90.82;;;34.08;;
50689;SDS011;54375;48.298;11.238;2023-02-10T02:07:14;62.53;;;25.00;;
50689;SDS011;54375;48.298;11.238;2023-02-10T02:27:24;61.92;;;26.65;;
50689;SDS011;54375;48.298;11.238;2023-02-10T02:47:40;56.08;;;25.45;;
50689;SDS011;54375;48.298;11.238;2023-02-10T03:08:05;59.63;;;25.73;;
50689;SDS011;54375;48.298;11.238;2023-02-10T03:28:07;55.83;;;26.88;;
50689;SDS011;54375;48.298;11.238;2023-02-10T03:48:10;49.60;;;24.60;;
50689;SDS011;54375;48.298;11.238;2023-02-10T04:08:13;58.17;;;27.13;;
50689;SDS011;54375;48.298;11.238;2023-02-10T04:28:16;56.55;;;25.77;;
50689;SDS011;54375;48.298;11.238;2023-02-10T04:48:18;48.33;;;23.20;;
50689;SDS011;54375;48.298;11.238;2023-02-10T05:08:20;56.88;;;24.85;;
50689;SDS011;54375;48.298;11.238;2023-02-10T05:28:23;49.85;;;21.73;;
50689;SDS011;54375;48.298;11.238;2023-02-10T05:48:25;55.30;;;23.48;;
50689;SDS011;54375;48.298;11.238;2023-02-10T06:08:28;62.65;;;27.02;;
50689;SDS011;54375;48.298;11.238;2023-02-10T06:28:30;64.82;;;28.30;;
50689;SDS011;54375;48.298;11.238;2023-02-10T06:48:32;62.03;;;26.67;;
50689;SDS011;54375;48.298;11.238;2023-02-10T07:08:35;62.17;;;27.85;;
50689;SDS011;54375;48.298;11.238;2023-02-10T07:28:38;65.50;;;29.40;;
50689;SDS011;54375;48.298;11.238;2023-02-10T07:48:40;79.70;;;30.95;;
50689;SDS011;54375;48.298;11.238;2023-02-10T08:08:42;40.95;;;19.50;;
50689;SDS011;54375;48.298;11.238;2023-02-10T08:28:45;39.65;;;18.63;;
50689;SDS011;54375;48.298;11.238;2023-02-10T08:48:48;33.67;;;17.38;;
50689;SDS011;54375;48.298;11.238;2023-02-10T09:08:50;29.58;;;15.10;;
50689;SDS011;54375;48.298;11.238;2023-02-10T09:28:53;27.48;;;16.13;;
50689;SDS011;54375;48.298;11.238;2023-02-10T09:48:59;36.92;;;17.58;;
50689;SDS011;54375;48.298;11.238;2023-02-10T10:09:13;34.97;;;19.75;;
50689;SDS011;54375;48.298;11.238;2023-02-10T10:29:26;36.17;;;21.05;;
50689;SDS011;54375;48.298;11.238;2023-02-10T10:49:37;36.25;;;21.08;;
50689;SDS011;54375;48.298;11.238;2023-02-10T11:09:40;41.30;;;22.70;;
50689;SDS011;54375;48.298;11.238;2023-02-10T11:29:51;47.80;;;26.27;;
50689;SDS011;54375;48.298;11.238;2023-02-10T11:49:55;56.13;;;26.35;;
50689;SDS011;54375;48.298;11.238;2023-02-10T12:09:59;43.75;;;25.67;;
50689;SDS011;54375;48.298;11.238;2023-02-10T12:30:13;36.65;;;23.27;;
50689;SDS011;54375;48.298;11.238;2023-02-10T12:50:35;34.45;;;22.33;;
50689;SDS011;54375;48.298;11.238;2023-02-10T13:10:45;38.80;;;23.40;;
50689;SDS011;54375;48.298;11.238;2023-02-10T13:30:54;37.65;;;22.20;;
50689;SDS011;54375;48.298;11.238;2023-02-10T13:51:12;36.83;;;23.40;;
50689;SDS011;54375;48.298;11.238;2023-02-10T14:11:27;33.67;;;21.77;;
50689;SDS011;54375;48.298;11.238;2023-02-10T14:31:37;41.40;;;24.35;;
50689;SDS011;54375;48.298;11.238;2023-02-10T14:51:42;39.80;;;21.83;;
50689;SDS011;54375;48.298;11.238;2023-02-10T15:11:48;36.50;;;21.08;;
50689;SDS011;54375;48.298;11.238;2023-02-10T15:31:56;38.50;;;22.08;;
50689;SDS011;54375;48.298;11.238;2023-02-10T15:51:59;38.95;;;22.42;;
50689;SDS011;54375;48.298;11.238;2023-02-10T16:12:01;44.90;;;23.90;;
50689;SDS011;54375;48.298;11.238;2023-02-10T16:32:04;51.20;;;29.10;;
50689;SDS011;54375;48.298;11.238;2023-02-10T16:52:08;53.88;;;30.88;;
50689;SDS011;54375;48.298;11.238;2023-02-10T17:12:10;49.50;;;29.50;;
50689;SDS011;54375;48.298;11.238;2023-02-10T17:32:12;58.03;;;33.25;;
50689;SDS011;54375;48.298;11.238;2023-02-10T17:52:15;61.28;;;33.60;;
50689;SDS011;54375;48.298;11.238;2023-02-10T18:12:17;49.25;;;26.25;;
50689;SDS011;54375;48.298;11.238;2023-02-10T18:32:19;45.33;;;23.52;;
50689;SDS011;54375;48.298;11.238;2023-02-10T18:52:22;68.97;;;30.08;;
50689;SDS011;54375;48.298;11.238;2023-02-10T19:12:24;60.60;;;29.65;;
50689;SDS011;54375;48.298;11.238;2023-02-10T19:32:26;64.60;;;30.13;;
50689;SDS011;54375;48.298;11.238;2023-02-10T19:52:29;61.97;;;30.98;;
50689;SDS011;54375;48.298;11.238;2023-02-10T20:12:31;71.00;;;32.03;;
50689;SDS011;54375;48.298;11.238;2023-02-10T20:32:34;75.03;;;32.25;;
50689;SDS011;54375;48.298;11.238;2023-02-10T20:52:36;77.55;;;33.17;;
50689;SDS011;54375;48.298;11.238;2023-02-10T21:12:39;72.68;;;33.72;;
50689;SDS011;54375;48.298;11.238;2023-02-10T21:32:42;76.63;;;34.08;;
50689;SDS011;54375;48.298;11.238;2023-02-10T21:52:44;71.85;;;33.90;;
50689;SDS011;54375;48.298;11.238;2023-02-10T22:12:46;73.05;;;34.95;;
50689;SDS011;54375;48.298;11.238;2023-02-10T22:32:49;78.75;;;34.50;;
50689;SDS011;54375;48.298;11.238;2023-02-10T22:52:51;71.05;;;32.88;;
50689;SDS011;54375;48.298;11.238;2023-02-10T23:12:54;80.05;;;33.92;;
50689;SDS011;54375;48.298;11.238;2023-02-10T23:32:57;124.45;;;47.22;;
50689;SDS011;54375;48.298;11.238;2023-02-10T23:52:59;122.80;;;47.58;;
